Terminal Aerodrome Forecast
Issued by NWS

Home | Current Version | Previous Version | Text Only | Print | Product List | Glossary On
Versions: 1 2 3 4 5 6 7 8 9 10 11 12 13 14
607
FTUS44 KJAN 262344 RRA
TAFGTR
TAF
KGTR 262344Z 2700/2724 16005KT P6SM VCTS BKN050CB BKN090
     FM270300 13004KT P6SM BKN050 BKN090
     FM271100 00000KT 6SM BR BKN025 BKN090
     FM271400 09004KT P6SM BKN050 BKN250
     FM271900 08006KT P6SM VCTS BKN050CB BKN130=

USA.gov is the U.S. government's official web portal to all federal, state and local government web resources and services.